sensor_id;sensor_type;location;lat;lon;timestamp;P1;durP1;ratioP1;P2;durP2;ratioP2
11481;SDS011;5797;51.662;6.748;2023-04-25T00:01:56;11.67;;;3.77;;
11481;SDS011;5797;51.662;6.748;2023-04-25T00:04:24;10.63;;;3.87;;
11481;SDS011;5797;51.662;6.748;2023-04-25T00:06:54;8.70;;;3.33;;
11481;SDS011;5797;51.662;6.748;2023-04-25T00:09:22;10.50;;;3.53;;
11481;SDS011;5797;51.662;6.748;2023-04-25T00:11:50;8.33;;;3.57;;
11481;SDS011;5797;51.662;6.748;2023-04-25T00:14:19;7.07;;;3.43;;
11481;SDS011;5797;51.662;6.748;2023-04-25T00:16:47;7.60;;;3.17;;
11481;SDS011;5797;51.662;6.748;2023-04-25T00:19:20;13.47;;;3.10;;
11481;SDS011;5797;51.662;6.748;2023-04-25T00:21:48;8.87;;;3.30;;
11481;SDS011;5797;51.662;6.748;2023-04-25T00:24:16;6.67;;;3.10;;
11481;SDS011;5797;51.662;6.748;2023-04-25T00:26:45;5.53;;;2.93;;
11481;SDS011;5797;51.662;6.748;2023-04-25T00:29:13;6.73;;;3.07;;
11481;SDS011;5797;51.662;6.748;2023-04-25T00:31:42;8.20;;;3.37;;
11481;SDS011;5797;51.662;6.748;2023-04-25T00:34:10;6.00;;;3.13;;
11481;SDS011;5797;51.662;6.748;2023-04-25T00:36:40;11.83;;;3.37;;
11481;SDS011;5797;51.662;6.748;2023-04-25T00:39:09;14.50;;;3.43;;
11481;SDS011;5797;51.662;6.748;2023-04-25T00:41:38;16.00;;;3.30;;
11481;SDS011;5797;51.662;6.748;2023-04-25T00:44:08;13.97;;;3.53;;
11481;SDS011;5797;51.662;6.748;2023-04-25T00:46:38;10.57;;;3.60;;
11481;SDS011;5797;51.662;6.748;2023-04-25T00:49:07;10.67;;;2.77;;
11481;SDS011;5797;51.662;6.748;2023-04-25T00:51:35;4.00;;;2.63;;
11481;SDS011;5797;51.662;6.748;2023-04-25T00:54:05;9.93;;;3.57;;
11481;SDS011;5797;51.662;6.748;2023-04-25T00:56:33;5.77;;;3.00;;
11481;SDS011;5797;51.662;6.748;2023-04-25T00:59:05;8.50;;;2.83;;
11481;SDS011;5797;51.662;6.748;2023-04-25T01:01:33;8.90;;;3.07;;
11481;SDS011;5797;51.662;6.748;2023-04-25T01:04:02;5.90;;;3.17;;
11481;SDS011;5797;51.662;6.748;2023-04-25T01:06:30;6.67;;;3.00;;
11481;SDS011;5797;51.662;6.748;2023-04-25T01:08:59;9.13;;;3.47;;
11481;SDS011;5797;51.662;6.748;2023-04-25T01:11:29;7.87;;;3.03;;
11481;SDS011;5797;51.662;6.748;2023-04-25T01:13:57;9.00;;;3.40;;
11481;SDS011;5797;51.662;6.748;2023-04-25T01:16:26;12.40;;;3.90;;
11481;SDS011;5797;51.662;6.748;2023-04-25T01:18:55;6.60;;;2.87;;
11481;SDS011;5797;51.662;6.748;2023-04-25T01:21:25;7.50;;;3.57;;
11481;SDS011;5797;51.662;6.748;2023-04-25T01:23:56;10.80;;;3.70;;
11481;SDS011;5797;51.662;6.748;2023-04-25T01:26:25;18.37;;;3.70;;
11481;SDS011;5797;51.662;6.748;2023-04-25T01:28:54;9.67;;;3.83;;
11481;SDS011;5797;51.662;6.748;2023-04-25T01:31:22;11.97;;;3.43;;
11481;SDS011;5797;51.662;6.748;2023-04-25T01:33:51;10.43;;;3.93;;
11481;SDS011;5797;51.662;6.748;2023-04-25T01:36:20;8.57;;;3.63;;
11481;SDS011;5797;51.662;6.748;2023-04-25T01:38:51;6.17;;;3.80;;
11481;SDS011;5797;51.662;6.748;2023-04-25T01:41:21;11.10;;;3.60;;
11481;SDS011;5797;51.662;6.748;2023-04-25T01:43:50;10.77;;;3.50;;
11481;SDS011;5797;51.662;6.748;2023-04-25T01:46:19;7.53;;;3.27;;
11481;SDS011;5797;51.662;6.748;2023-04-25T01:48:47;8.57;;;3.20;;
11481;SDS011;5797;51.662;6.748;2023-04-25T01:51:16;8.63;;;3.10;;
11481;SDS011;5797;51.662;6.748;2023-04-25T01:53:44;7.77;;;3.30;;
11481;SDS011;5797;51.662;6.748;2023-04-25T01:56:15;8.43;;;3.87;;
11481;SDS011;5797;51.662;6.748;2023-04-25T01:58:44;6.47;;;3.30;;
11481;SDS011;5797;51.662;6.748;2023-04-25T02:01:25;8.17;;;2.93;;
11481;SDS011;5797;51.662;6.748;2023-04-25T02:04:10;9.17;;;4.43;;
11481;SDS011;5797;51.662;6.748;2023-04-25T02:06:40;11.00;;;3.50;;
11481;SDS011;5797;51.662;6.748;2023-04-25T02:09:09;9.40;;;3.60;;
11481;SDS011;5797;51.662;6.748;2023-04-25T02:11:43;8.17;;;3.33;;
11481;SDS011;5797;51.662;6.748;2023-04-25T02:14:24;7.70;;;3.40;;
11481;SDS011;5797;51.662;6.748;2023-04-25T02:17:00;10.60;;;3.30;;
11481;SDS011;5797;51.662;6.748;2023-04-25T02:19:30;10.20;;;3.53;;
11481;SDS011;5797;51.662;6.748;2023-04-25T02:21:58;9.63;;;4.00;;
11481;SDS011;5797;51.662;6.748;2023-04-25T02:24:26;14.77;;;4.20;;
11481;SDS011;5797;51.662;6.748;2023-04-25T02:26:57;7.27;;;3.63;;
11481;SDS011;5797;51.662;6.748;2023-04-25T02:29:26;10.30;;;4.10;;
11481;SDS011;5797;51.662;6.748;2023-04-25T02:31:54;7.23;;;3.10;;
11481;SDS011;5797;51.662;6.748;2023-04-25T02:34:23;6.03;;;3.73;;
11481;SDS011;5797;51.662;6.748;2023-04-25T02:36:51;10.17;;;3.93;;
11481;SDS011;5797;51.662;6.748;2023-04-25T02:39:20;7.57;;;3.40;;
11481;SDS011;5797;51.662;6.748;2023-04-25T02:41:49;6.60;;;3.30;;
11481;SDS011;5797;51.662;6.748;2023-04-25T02:44:18;9.73;;;4.00;;
11481;SDS011;5797;51.662;6.748;2023-04-25T02:46:47;5.97;;;3.07;;
11481;SDS011;5797;51.662;6.748;2023-04-25T02:49:15;16.87;;;4.33;;
11481;SDS011;5797;51.662;6.748;2023-04-25T02:51:44;4.47;;;2.63;;
11481;SDS011;5797;51.662;6.748;2023-04-25T02:54:12;8.97;;;3.83;;
11481;SDS011;5797;51.662;6.748;2023-04-25T02:56:43;15.43;;;4.70;;
11481;SDS011;5797;51.662;6.748;2023-04-25T02:59:19;11.20;;;4.37;;
11481;SDS011;5797;51.662;6.748;2023-04-25T03:01:47;8.33;;;3.67;;
11481;SDS011;5797;51.662;6.748;2023-04-25T03:04:16;11.63;;;3.67;;
11481;SDS011;5797;51.662;6.748;2023-04-25T03:06:46;8.03;;;3.30;;
11481;SDS011;5797;51.662;6.748;2023-04-25T03:09:14;11.83;;;4.13;;
11481;SDS011;5797;51.662;6.748;2023-04-25T03:11:43;10.70;;;3.00;;
11481;SDS011;5797;51.662;6.748;2023-04-25T03:14:12;12.37;;;4.13;;
11481;SDS011;5797;51.662;6.748;2023-04-25T03:16:42;9.97;;;3.67;;
11481;SDS011;5797;51.662;6.748;2023-04-25T03:19:11;10.07;;;3.50;;
11481;SDS011;5797;51.662;6.748;2023-04-25T03:21:39;8.77;;;3.40;;
11481;SDS011;5797;51.662;6.748;2023-04-25T03:24:08;14.23;;;4.40;;
11481;SDS011;5797;51.662;6.748;2023-04-25T03:26:37;10.10;;;2.97;;
11481;SDS011;5797;51.662;6.748;2023-04-25T03:29:06;7.00;;;3.57;;
11481;SDS011;5797;51.662;6.748;2023-04-25T03:31:36;8.53;;;4.03;;
11481;SDS011;5797;51.662;6.748;2023-04-25T03:34:06;13.60;;;4.43;;
11481;SDS011;5797;51.662;6.748;2023-04-25T03:36:34;9.90;;;3.50;;
11481;SDS011;5797;51.662;6.748;2023-04-25T03:39:04;7.33;;;3.07;;
11481;SDS011;5797;51.662;6.748;2023-04-25T03:41:33;11.13;;;3.77;;
11481;SDS011;5797;51.662;6.748;2023-04-25T03:44:07;11.60;;;4.03;;
11481;SDS011;5797;51.662;6.748;2023-04-25T03:46:35;8.83;;;3.60;;
11481;SDS011;5797;51.662;6.748;2023-04-25T03:49:03;15.77;;;4.07;;
11481;SDS011;5797;51.662;6.748;2023-04-25T03:51:52;10.17;;;4.07;;
11481;SDS011;5797;51.662;6.748;2023-04-25T03:54:21;10.83;;;3.50;;
11481;SDS011;5797;51.662;6.748;2023-04-25T03:56:57;13.23;;;3.53;;
11481;SDS011;5797;51.662;6.748;2023-04-25T03:59:28;9.37;;;4.47;;
11481;SDS011;5797;51.662;6.748;2023-04-25T04:01:56;8.70;;;4.00;;
11481;SDS011;5797;51.662;6.748;2023-04-25T04:04:26;8.17;;;3.60;;
11481;SDS011;5797;51.662;6.748;2023-04-25T04:06:55;11.47;;;4.10;;
11481;SDS011;5797;51.662;6.748;2023-04-25T04:09:26;8.97;;;4.10;;
11481;SDS011;5797;51.662;6.748;2023-04-25T04:11:57;13.10;;;3.80;;
11481;SDS011;5797;51.662;6.748;2023-04-25T04:14:26;10.90;;;4.20;;
11481;SDS011;5797;51.662;6.748;2023-04-25T04:16:54;7.57;;;3.40;;
11481;SDS011;5797;51.662;6.748;2023-04-25T04:19:23;8.90;;;3.57;;
11481;SDS011;5797;51.662;6.748;2023-04-25T04:22:13;9.63;;;4.03;;
11481;SDS011;5797;51.662;6.748;2023-04-25T04:24:42;12.87;;;4.20;;
11481;SDS011;5797;51.662;6.748;2023-04-25T04:27:18;7.03;;;3.50;;
11481;SDS011;5797;51.662;6.748;2023-04-25T04:29:53;12.10;;;3.67;;
11481;SDS011;5797;51.662;6.748;2023-04-25T04:32:26;15.30;;;4.23;;
11481;SDS011;5797;51.662;6.748;2023-04-25T04:34:54;12.23;;;4.00;;
11481;SDS011;5797;51.662;6.748;2023-04-25T04:37:25;10.83;;;3.90;;
11481;SDS011;5797;51.662;6.748;2023-04-25T04:39:54;15.33;;;5.20;;
11481;SDS011;5797;51.662;6.748;2023-04-25T04:42:37;12.60;;;3.93;;
11481;SDS011;5797;51.662;6.748;2023-04-25T04:45:35;11.33;;;4.00;;
11481;SDS011;5797;51.662;6.748;2023-04-25T04:48:34;13.03;;;4.60;;
11481;SDS011;5797;51.662;6.748;2023-04-25T04:51:11;5.57;;;3.20;;
11481;SDS011;5797;51.662;6.748;2023-04-25T04:53:41;11.37;;;4.50;;
11481;SDS011;5797;51.662;6.748;2023-04-25T04:56:29;11.83;;;3.67;;
11481;SDS011;5797;51.662;6.748;2023-04-25T04:59:17;9.00;;;3.87;;
11481;SDS011;5797;51.662;6.748;2023-04-25T05:02:18;11.97;;;4.33;;
11481;SDS011;5797;51.662;6.748;2023-04-25T05:05:08;8.37;;;3.83;;
11481;SDS011;5797;51.662;6.748;2023-04-25T05:07:55;9.33;;;3.93;;
11481;SDS011;5797;51.662;6.748;2023-04-25T05:10:33;14.93;;;3.90;;
11481;SDS011;5797;51.662;6.748;2023-04-25T05:13:15;12.77;;;4.63;;
11481;SDS011;5797;51.662;6.748;2023-04-25T05:16:12;9.57;;;4.13;;
11481;SDS011;5797;51.662;6.748;2023-04-25T05:18:59;7.40;;;3.73;;
11481;SDS011;5797;51.662;6.748;2023-04-25T05:21:37;14.97;;;4.07;;
11481;SDS011;5797;51.662;6.748;2023-04-25T05:24:28;14.70;;;4.13;;
11481;SDS011;5797;51.662;6.748;2023-04-25T05:27:12;9.40;;;4.03;;
11481;SDS011;5797;51.662;6.748;2023-04-25T05:29:58;14.73;;;4.80;;
11481;SDS011;5797;51.662;6.748;2023-04-25T05:32:47;13.20;;;4.07;;
11481;SDS011;5797;51.662;6.748;2023-04-25T05:35:15;8.00;;;3.87;;
11481;SDS011;5797;51.662;6.748;2023-04-25T05:37:47;9.00;;;4.43;;
11481;SDS011;5797;51.662;6.748;2023-04-25T05:40:15;9.43;;;3.77;;
11481;SDS011;5797;51.662;6.748;2023-04-25T05:42:45;12.33;;;4.13;;
11481;SDS011;5797;51.662;6.748;2023-04-25T05:45:32;12.17;;;4.17;;
11481;SDS011;5797;51.662;6.748;2023-04-25T05:48:03;11.07;;;4.17;;
11481;SDS011;5797;51.662;6.748;2023-04-25T05:50:40;12.73;;;3.87;;
11481;SDS011;5797;51.662;6.748;2023-04-25T05:53:44;15.37;;;3.93;;
11481;SDS011;5797;51.662;6.748;2023-04-25T05:56:13;14.97;;;4.47;;
11481;SDS011;5797;51.662;6.748;2023-04-25T05:58:43;11.47;;;4.07;;
11481;SDS011;5797;51.662;6.748;2023-04-25T06:01:12;7.30;;;3.40;;
11481;SDS011;5797;51.662;6.748;2023-04-25T06:03:40;7.23;;;3.60;;
11481;SDS011;5797;51.662;6.748;2023-04-25T06:06:10;7.03;;;3.50;;
11481;SDS011;5797;51.662;6.748;2023-04-25T06:08:40;9.70;;;2.70;;
11481;SDS011;5797;51.662;6.748;2023-04-25T06:11:10;9.70;;;3.20;;
11481;SDS011;5797;51.662;6.748;2023-04-25T06:13:39;6.20;;;3.27;;
11481;SDS011;5797;51.662;6.748;2023-04-25T06:16:09;11.40;;;3.53;;
11481;SDS011;5797;51.662;6.748;2023-04-25T06:18:37;9.83;;;3.07;;
11481;SDS011;5797;51.662;6.748;2023-04-25T06:21:06;12.13;;;3.40;;
11481;SDS011;5797;51.662;6.748;2023-04-25T06:23:35;8.40;;;3.70;;
11481;SDS011;5797;51.662;6.748;2023-04-25T06:26:06;7.90;;;3.20;;
11481;SDS011;5797;51.662;6.748;2023-04-25T06:28:37;7.27;;;3.53;;
11481;SDS011;5797;51.662;6.748;2023-04-25T06:31:06;8.17;;;3.43;;
11481;SDS011;5797;51.662;6.748;2023-04-25T06:33:36;5.93;;;3.43;;
11481;SDS011;5797;51.662;6.748;2023-04-25T06:36:05;9.03;;;3.47;;
11481;SDS011;5797;51.662;6.748;2023-04-25T06:38:35;7.23;;;3.47;;
11481;SDS011;5797;51.662;6.748;2023-04-25T06:41:03;12.13;;;4.23;;
11481;SDS011;5797;51.662;6.748;2023-04-25T06:43:35;7.90;;;3.83;;
11481;SDS011;5797;51.662;6.748;2023-04-25T06:46:23;7.70;;;3.60;;
11481;SDS011;5797;51.662;6.748;2023-04-25T06:48:54;6.20;;;2.70;;
11481;SDS011;5797;51.662;6.748;2023-04-25T06:51:23;14.23;;;3.77;;
11481;SDS011;5797;51.662;6.748;2023-04-25T06:53:53;6.40;;;3.57;;
11481;SDS011;5797;51.662;6.748;2023-04-25T06:56:28;10.43;;;3.73;;
11481;SDS011;5797;51.662;6.748;2023-04-25T06:59:13;10.47;;;3.70;;
11481;SDS011;5797;51.662;6.748;2023-04-25T07:01:43;7.97;;;3.03;;
11481;SDS011;5797;51.662;6.748;2023-04-25T07:04:20;12.37;;;3.67;;
11481;SDS011;5797;51.662;6.748;2023-04-25T07:06:59;9.73;;;3.30;;
11481;SDS011;5797;51.662;6.748;2023-04-25T07:09:50;6.73;;;3.37;;
11481;SDS011;5797;51.662;6.748;2023-04-25T07:12:19;9.03;;;3.70;;
11481;SDS011;5797;51.662;6.748;2023-04-25T07:14:47;13.13;;;3.80;;
11481;SDS011;5797;51.662;6.748;2023-04-25T07:17:16;11.10;;;3.27;;
11481;SDS011;5797;51.662;6.748;2023-04-25T07:19:46;7.50;;;2.70;;
11481;SDS011;5797;51.662;6.748;2023-04-25T07:22:16;12.73;;;3.70;;
11481;SDS011;5797;51.662;6.748;2023-04-25T07:24:45;9.03;;;3.23;;
11481;SDS011;5797;51.662;6.748;2023-04-25T07:27:18;6.50;;;2.53;;
11481;SDS011;5797;51.662;6.748;2023-04-25T07:29:54;11.90;;;3.67;;
11481;SDS011;5797;51.662;6.748;2023-04-25T07:32:23;10.70;;;3.13;;
11481;SDS011;5797;51.662;6.748;2023-04-25T07:34:53;6.23;;;2.70;;
11481;SDS011;5797;51.662;6.748;2023-04-25T07:37:21;8.57;;;3.07;;
11481;SDS011;5797;51.662;6.748;2023-04-25T07:40:01;10.97;;;3.63;;
11481;SDS011;5797;51.662;6.748;2023-04-25T07:42:30;8.87;;;2.87;;
11481;SDS011;5797;51.662;6.748;2023-04-25T07:44:59;11.40;;;2.70;;
11481;SDS011;5797;51.662;6.748;2023-04-25T07:47:28;10.87;;;2.77;;
11481;SDS011;5797;51.662;6.748;2023-04-25T07:49:58;9.87;;;3.07;;
11481;SDS011;5797;51.662;6.748;2023-04-25T07:52:28;9.50;;;3.10;;
11481;SDS011;5797;51.662;6.748;2023-04-25T07:55:05;4.60;;;2.37;;
11481;SDS011;5797;51.662;6.748;2023-04-25T07:57:42;6.97;;;2.40;;
11481;SDS011;5797;51.662;6.748;2023-04-25T08:00:12;8.63;;;2.93;;
11481;SDS011;5797;51.662;6.748;2023-04-25T08:02:47;3.67;;;2.20;;
11481;SDS011;5797;51.662;6.748;2023-04-25T08:05:17;8.03;;;2.23;;
11481;SDS011;5797;51.662;6.748;2023-04-25T08:07:54;9.33;;;2.50;;
11481;SDS011;5797;51.662;6.748;2023-04-25T08:10:23;11.37;;;2.20;;
11481;SDS011;5797;51.662;6.748;2023-04-25T08:12:52;8.80;;;2.30;;
11481;SDS011;5797;51.662;6.748;2023-04-25T08:15:22;5.73;;;1.83;;
11481;SDS011;5797;51.662;6.748;2023-04-25T08:17:51;5.70;;;1.83;;
11481;SDS011;5797;51.662;6.748;2023-04-25T08:20:22;8.03;;;2.10;;
11481;SDS011;5797;51.662;6.748;2023-04-25T08:22:52;4.57;;;2.23;;
11481;SDS011;5797;51.662;6.748;2023-04-25T08:25:44;5.43;;;2.00;;
11481;SDS011;5797;51.662;6.748;2023-04-25T08:28:15;6.97;;;1.93;;
11481;SDS011;5797;51.662;6.748;2023-04-25T08:30:44;9.03;;;2.33;;
11481;SDS011;5797;51.662;6.748;2023-04-25T08:33:14;3.93;;;1.60;;
11481;SDS011;5797;51.662;6.748;2023-04-25T08:35:47;7.63;;;2.27;;
11481;SDS011;5797;51.662;6.748;2023-04-25T08:38:16;6.33;;;2.27;;
11481;SDS011;5797;51.662;6.748;2023-04-25T08:40:45;8.47;;;2.77;;
11481;SDS011;5797;51.662;6.748;2023-04-25T08:43:19;10.60;;;2.00;;
11481;SDS011;5797;51.662;6.748;2023-04-25T08:45:48;4.33;;;1.50;;
11481;SDS011;5797;51.662;6.748;2023-04-25T08:48:35;8.93;;;1.73;;
11481;SDS011;5797;51.662;6.748;2023-04-25T08:51:06;5.93;;;1.90;;
11481;SDS011;5797;51.662;6.748;2023-04-25T08:53:38;9.40;;;1.53;;
11481;SDS011;5797;51.662;6.748;2023-04-25T08:56:09;8.00;;;2.57;;
11481;SDS011;5797;51.662;6.748;2023-04-25T08:58:41;5.27;;;1.97;;
11481;SDS011;5797;51.662;6.748;2023-04-25T09:01:10;5.23;;;1.40;;
11481;SDS011;5797;51.662;6.748;2023-04-25T09:03:46;5.53;;;1.70;;
11481;SDS011;5797;51.662;6.748;2023-04-25T09:06:18;6.33;;;1.77;;
11481;SDS011;5797;51.662;6.748;2023-04-25T09:08:49;7.27;;;2.13;;
11481;SDS011;5797;51.662;6.748;2023-04-25T09:11:18;6.80;;;1.63;;
11481;SDS011;5797;51.662;6.748;2023-04-25T09:13:48;5.87;;;1.43;;
11481;SDS011;5797;51.662;6.748;2023-04-25T09:16:38;2.17;;;1.30;;
11481;SDS011;5797;51.662;6.748;2023-04-25T09:19:44;3.53;;;1.87;;
11481;SDS011;5797;51.662;6.748;2023-04-25T09:22:23;10.33;;;1.63;;
11481;SDS011;5797;51.662;6.748;2023-04-25T09:24:52;5.07;;;1.20;;
11481;SDS011;5797;51.662;6.748;2023-04-25T09:27:24;2.50;;;1.30;;
11481;SDS011;5797;51.662;6.748;2023-04-25T09:30:10;4.30;;;1.33;;
11481;SDS011;5797;51.662;6.748;2023-04-25T09:32:59;4.83;;;1.37;;
11481;SDS011;5797;51.662;6.748;2023-04-25T09:35:35;4.90;;;1.33;;
11481;SDS011;5797;51.662;6.748;2023-04-25T09:38:10;5.43;;;1.20;;
11481;SDS011;5797;51.662;6.748;2023-04-25T09:40:49;1.77;;;1.53;;
11481;SDS011;5797;51.662;6.748;2023-04-25T09:43:27;8.63;;;1.43;;
11481;SDS011;5797;51.662;6.748;2023-04-25T09:45:56;3.30;;;1.30;;
11481;SDS011;5797;51.662;6.748;2023-04-25T09:48:28;5.30;;;1.27;;
11481;SDS011;5797;51.662;6.748;2023-04-25T09:51:05;2.90;;;1.30;;
11481;SDS011;5797;51.662;6.748;2023-04-25T09:53:36;6.60;;;1.40;;
11481;SDS011;5797;51.662;6.748;2023-04-25T09:56:26;6.10;;;1.37;;
11481;SDS011;5797;51.662;6.748;2023-04-25T09:58:58;4.87;;;1.50;;
11481;SDS011;5797;51.662;6.748;2023-04-25T10:01:27;2.27;;;1.47;;
11481;SDS011;5797;51.662;6.748;2023-04-25T10:04:06;3.00;;;1.40;;
11481;SDS011;5797;51.662;6.748;2023-04-25T10:06:49;4.40;;;1.90;;
11481;SDS011;5797;51.662;6.748;2023-04-25T10:09:20;3.33;;;1.47;;
11481;SDS011;5797;51.662;6.748;2023-04-25T10:11:49;2.90;;;1.27;;
11481;SDS011;5797;51.662;6.748;2023-04-25T10:14:18;8.17;;;1.23;;
11481;SDS011;5797;51.662;6.748;2023-04-25T10:16:47;3.00;;;1.30;;
11481;SDS011;5797;51.662;6.748;2023-04-25T10:19:16;3.10;;;1.40;;
11481;SDS011;5797;51.662;6.748;2023-04-25T10:21:48;3.90;;;1.00;;
11481;SDS011;5797;51.662;6.748;2023-04-25T10:24:18;4.13;;;1.93;;
11481;SDS011;5797;51.662;6.748;2023-04-25T10:26:49;1.87;;;1.10;;
11481;SDS011;5797;51.662;6.748;2023-04-25T10:29:21;2.60;;;1.20;;
11481;SDS011;5797;51.662;6.748;2023-04-25T10:31:50;2.77;;;1.20;;
11481;SDS011;5797;51.662;6.748;2023-04-25T10:34:19;2.03;;;1.47;;
11481;SDS011;5797;51.662;6.748;2023-04-25T10:36:52;3.97;;;1.37;;
11481;SDS011;5797;51.662;6.748;2023-04-25T10:39:23;2.93;;;1.13;;
11481;SDS011;5797;51.662;6.748;2023-04-25T10:41:52;1.63;;;0.97;;
11481;SDS011;5797;51.662;6.748;2023-04-25T10:44:23;1.63;;;1.20;;
11481;SDS011;5797;51.662;6.748;2023-04-25T10:46:55;1.13;;;1.03;;
11481;SDS011;5797;51.662;6.748;2023-04-25T10:49:28;2.23;;;1.10;;
11481;SDS011;5797;51.662;6.748;2023-04-25T10:52:14;1.93;;;1.37;;
11481;SDS011;5797;51.662;6.748;2023-04-25T10:54:48;6.07;;;1.93;;
11481;SDS011;5797;51.662;6.748;2023-04-25T10:57:26;4.93;;;1.37;;
11481;SDS011;5797;51.662;6.748;2023-04-25T11:00:00;5.47;;;1.87;;
11481;SDS011;5797;51.662;6.748;2023-04-25T11:02:31;5.27;;;1.30;;
11481;SDS011;5797;51.662;6.748;2023-04-25T11:05:00;2.03;;;1.17;;
11481;SDS011;5797;51.662;6.748;2023-04-25T11:07:32;5.00;;;1.57;;
11481;SDS011;5797;51.662;6.748;2023-04-25T11:10:05;2.63;;;1.00;;
11481;SDS011;5797;51.662;6.748;2023-04-25T11:12:34;3.00;;;1.17;;
11481;SDS011;5797;51.662;6.748;2023-04-25T11:15:03;2.83;;;1.40;;
11481;SDS011;5797;51.662;6.748;2023-04-25T11:17:33;2.83;;;1.30;;
11481;SDS011;5797;51.662;6.748;2023-04-25T11:20:02;1.57;;;1.47;;
11481;SDS011;5797;51.662;6.748;2023-04-25T11:22:35;2.83;;;1.23;;
11481;SDS011;5797;51.662;6.748;2023-04-25T11:25:09;4.47;;;1.40;;
11481;SDS011;5797;51.662;6.748;2023-04-25T11:27:38;3.43;;;1.37;;
11481;SDS011;5797;51.662;6.748;2023-04-25T11:30:11;2.27;;;1.47;;
11481;SDS011;5797;51.662;6.748;2023-04-25T11:32:42;8.17;;;1.70;;
11481;SDS011;5797;51.662;6.748;2023-04-25T11:35:10;11.93;;;1.80;;
11481;SDS011;5797;51.662;6.748;2023-04-25T11:37:39;4.67;;;1.37;;
11481;SDS011;5797;51.662;6.748;2023-04-25T11:40:13;2.67;;;1.17;;
11481;SDS011;5797;51.662;6.748;2023-04-25T11:42:43;4.33;;;1.50;;
11481;SDS011;5797;51.662;6.748;2023-04-25T11:45:13;1.40;;;0.93;;
11481;SDS011;5797;51.662;6.748;2023-04-25T11:47:42;2.17;;;0.93;;
11481;SDS011;5797;51.662;6.748;2023-04-25T11:50:10;3.13;;;1.10;;
11481;SDS011;5797;51.662;6.748;2023-04-25T11:52:40;2.77;;;0.83;;
11481;SDS011;5797;51.662;6.748;2023-04-25T11:55:10;5.20;;;1.30;;
11481;SDS011;5797;51.662;6.748;2023-04-25T11:57:42;2.97;;;1.37;;
11481;SDS011;5797;51.662;6.748;2023-04-25T12:00:13;2.33;;;1.10;;
11481;SDS011;5797;51.662;6.748;2023-04-25T12:02:46;3.20;;;1.27;;
11481;SDS011;5797;51.662;6.748;2023-04-25T12:05:15;2.73;;;1.10;;
11481;SDS011;5797;51.662;6.748;2023-04-25T12:07:47;4.97;;;1.40;;
11481;SDS011;5797;51.662;6.748;2023-04-25T12:10:18;4.10;;;1.63;;
11481;SDS011;5797;51.662;6.748;2023-04-25T12:12:47;2.60;;;1.43;;
11481;SDS011;5797;51.662;6.748;2023-04-25T12:15:17;4.97;;;1.33;;
11481;SDS011;5797;51.662;6.748;2023-04-25T12:17:47;2.77;;;1.30;;
11481;SDS011;5797;51.662;6.748;2023-04-25T12:20:17;2.13;;;1.10;;
11481;SDS011;5797;51.662;6.748;2023-04-25T12:22:47;2.70;;;1.20;;
11481;SDS011;5797;51.662;6.748;2023-04-25T12:28:11;4.87;;;1.10;;
11481;SDS011;5797;51.662;6.748;2023-04-25T12:30:53;3.47;;;1.20;;
11481;SDS011;5797;51.662;6.748;2023-04-25T12:33:23;3.77;;;1.10;;
11481;SDS011;5797;51.662;6.748;2023-04-25T12:35:52;3.03;;;1.20;;
11481;SDS011;5797;51.662;6.748;2023-04-25T12:38:21;6.20;;;1.73;;
11481;SDS011;5797;51.662;6.748;2023-04-25T12:40:52;1.80;;;1.20;;
11481;SDS011;5797;51.662;6.748;2023-04-25T12:43:20;4.50;;;1.60;;
11481;SDS011;5797;51.662;6.748;2023-04-25T12:45:50;2.77;;;1.10;;
11481;SDS011;5797;51.662;6.748;2023-04-25T12:48:19;2.07;;;1.47;;
11481;SDS011;5797;51.662;6.748;2023-04-25T12:50:48;4.97;;;1.50;;
11481;SDS011;5797;51.662;6.748;2023-04-25T12:53:17;4.20;;;1.13;;
11481;SDS011;5797;51.662;6.748;2023-04-25T12:55:46;3.07;;;1.30;;
11481;SDS011;5797;51.662;6.748;2023-04-25T12:58:16;3.70;;;1.27;;
11481;SDS011;5797;51.662;6.748;2023-04-25T13:00:45;6.30;;;1.20;;
11481;SDS011;5797;51.662;6.748;2023-04-25T13:03:14;3.33;;;1.00;;
11481;SDS011;5797;51.662;6.748;2023-04-25T13:05:43;2.17;;;1.00;;
11481;SDS011;5797;51.662;6.748;2023-04-25T13:08:12;2.83;;;1.37;;
11481;SDS011;5797;51.662;6.748;2023-04-25T13:10:40;2.50;;;1.00;;
11481;SDS011;5797;51.662;6.748;2023-04-25T13:13:09;3.17;;;1.10;;
11481;SDS011;5797;51.662;6.748;2023-04-25T13:15:38;2.27;;;1.27;;
11481;SDS011;5797;51.662;6.748;2023-04-25T13:18:09;2.47;;;1.13;;
11481;SDS011;5797;51.662;6.748;2023-04-25T13:20:51;3.27;;;0.90;;
11481;SDS011;5797;51.662;6.748;2023-04-25T13:23:20;0.90;;;0.90;;
11481;SDS011;5797;51.662;6.748;2023-04-25T13:25:49;2.87;;;1.17;;
11481;SDS011;5797;51.662;6.748;2023-04-25T13:28:17;3.07;;;1.00;;
11481;SDS011;5797;51.662;6.748;2023-04-25T13:30:47;1.83;;;1.00;;
11481;SDS011;5797;51.662;6.748;2023-04-25T13:33:15;4.97;;;1.10;;
11481;SDS011;5797;51.662;6.748;2023-04-25T13:35:44;3.40;;;1.10;;
11481;SDS011;5797;51.662;6.748;2023-04-25T13:38:13;1.13;;;0.90;;
11481;SDS011;5797;51.662;6.748;2023-04-25T13:40:42;1.47;;;0.70;;
11481;SDS011;5797;51.662;6.748;2023-04-25T13:43:11;4.00;;;0.90;;
11481;SDS011;5797;51.662;6.748;2023-04-25T13:45:39;3.43;;;1.30;;
11481;SDS011;5797;51.662;6.748;2023-04-25T13:48:10;3.07;;;1.10;;
11481;SDS011;5797;51.662;6.748;2023-04-25T13:50:38;3.13;;;1.23;;
11481;SDS011;5797;51.662;6.748;2023-04-25T13:53:07;1.43;;;0.87;;
11481;SDS011;5797;51.662;6.748;2023-04-25T13:55:35;2.47;;;1.30;;
11481;SDS011;5797;51.662;6.748;2023-04-25T13:58:04;4.30;;;0.97;;
11481;SDS011;5797;51.662;6.748;2023-04-25T14:00:35;2.80;;;1.00;;
11481;SDS011;5797;51.662;6.748;2023-04-25T14:03:05;3.60;;;1.00;;
11481;SDS011;5797;51.662;6.748;2023-04-25T14:05:36;2.57;;;1.33;;
11481;SDS011;5797;51.662;6.748;2023-04-25T14:08:06;1.90;;;1.30;;
11481;SDS011;5797;51.662;6.748;2023-04-25T14:10:35;2.90;;;1.20;;
11481;SDS011;5797;51.662;6.748;2023-04-25T14:13:05;3.53;;;1.40;;
11481;SDS011;5797;51.662;6.748;2023-04-25T14:15:36;2.83;;;1.40;;
11481;SDS011;5797;51.662;6.748;2023-04-25T14:18:05;5.67;;;1.73;;
11481;SDS011;5797;51.662;6.748;2023-04-25T14:20:33;3.37;;;1.50;;
11481;SDS011;5797;51.662;6.748;2023-04-25T14:23:03;4.67;;;1.33;;
11481;SDS011;5797;51.662;6.748;2023-04-25T14:25:32;4.60;;;1.80;;
11481;SDS011;5797;51.662;6.748;2023-04-25T14:28:00;4.77;;;1.40;;
11481;SDS011;5797;51.662;6.748;2023-04-25T14:30:29;2.93;;;1.60;;
11481;SDS011;5797;51.662;6.748;2023-04-25T14:32:57;4.10;;;1.27;;
11481;SDS011;5797;51.662;6.748;2023-04-25T14:35:26;4.97;;;1.53;;
11481;SDS011;5797;51.662;6.748;2023-04-25T14:37:54;1.80;;;1.40;;
11481;SDS011;5797;51.662;6.748;2023-04-25T14:40:25;4.00;;;1.63;;
11481;SDS011;5797;51.662;6.748;2023-04-25T14:42:54;7.67;;;1.60;;
11481;SDS011;5797;51.662;6.748;2023-04-25T14:45:22;4.47;;;1.50;;
11481;SDS011;5797;51.662;6.748;2023-04-25T14:47:50;3.57;;;1.30;;
11481;SDS011;5797;51.662;6.748;2023-04-25T14:50:19;2.10;;;1.37;;
11481;SDS011;5797;51.662;6.748;2023-04-25T14:52:47;2.33;;;1.20;;
11481;SDS011;5797;51.662;6.748;2023-04-25T14:55:16;5.30;;;1.60;;
11481;SDS011;5797;51.662;6.748;2023-04-25T14:57:46;2.37;;;1.10;;
11481;SDS011;5797;51.662;6.748;2023-04-25T15:00:14;3.90;;;1.40;;
11481;SDS011;5797;51.662;6.748;2023-04-25T15:02:43;1.17;;;1.03;;
11481;SDS011;5797;51.662;6.748;2023-04-25T15:05:12;2.23;;;1.40;;
11481;SDS011;5797;51.662;6.748;2023-04-25T15:07:41;5.60;;;1.43;;
11481;SDS011;5797;51.662;6.748;2023-04-25T15:10:10;1.57;;;1.13;;
11481;SDS011;5797;51.662;6.748;2023-04-25T15:12:40;2.80;;;1.20;;
11481;SDS011;5797;51.662;6.748;2023-04-25T15:15:10;3.97;;;1.30;;
11481;SDS011;5797;51.662;6.748;2023-04-25T15:17:43;1.77;;;1.20;;
11481;SDS011;5797;51.662;6.748;2023-04-25T15:20:12;5.33;;;1.13;;
11481;SDS011;5797;51.662;6.748;2023-04-25T15:22:42;6.53;;;1.70;;
11481;SDS011;5797;51.662;6.748;2023-04-25T15:25:11;1.30;;;1.10;;
11481;SDS011;5797;51.662;6.748;2023-04-25T15:27:40;3.50;;;1.20;;
11481;SDS011;5797;51.662;6.748;2023-04-25T15:30:12;2.27;;;1.33;;